»·PEaware :: SWA769 KLAX-KSLC

SWA769 :: KLAX-KSLC

FLIGHT INFORMATION

Flight Status: Arrived
Operator:
Southwest Airlines
More flights by this operator :: More flights under this callsign
Pilot: Maximilliano F. (23467)
Aircraft: BOEING 737-800
(B738)
More flights by this aircraft type
Origin: KLAX Los Angeles Intl
United States
Destination: KSLC Salt Lake City Intl
United States
More flights between these airports :: More routes between these airports
Route: +OSHNN8 LAS Q70 BLIPP Q842 WINEN MLF DELTA5
File this flight plan on PilotEdge
Remarks: RMK / SIMBRIEF
Altitude:
(Current/Filed)
37,000ft
Speed:
(Current/Filed)
455kts
Departed: 22-Oct-19 03:38 PM
Arrived: 22-Oct-19 05:10 PM
Distance/Time
Traveled:
512nm/1:32
Distance/Time
To Go:
Arrived

Flight Plot

Page will automatically refresh every two minutes.

Flight plan parsing failed; only flown route is shown


Map Options




Map Legend


Flown Route
Filed Route
Departure Airport
Arrival Airport
Navaid (VOR, NDB)
Fix

Horizontal Profiles

Position Reports

Time Latitude Longitude Heading Altitude Ground
Speed
22-Oct-19 15:10 33.946934 -118.400612 262 121ft 0kts
22-Oct-19 15:11 33.946934 -118.400612 262 121ft 0kts
22-Oct-19 15:12 33.946934 -118.400612 262 121ft 0kts
22-Oct-19 15:13 33.946934 -118.400612 262 121ft 0kts
22-Oct-19 15:14 33.946934 -118.400612 262 121ft 0kts
22-Oct-19 15:15 33.946934 -118.400612 262 121ft 0kts
22-Oct-19 15:16 33.946934 -118.400612 262 121ft 0kts
22-Oct-19 15:17 33.946934 -118.400612 262 121ft 0kts
22-Oct-19 15:18 33.946934 -118.400612 262 121ft 0kts
22-Oct-19 15:19 33.946934 -118.400612 262 121ft 0kts
22-Oct-19 15:20 33.946934 -118.400612 262 121ft 0kts
22-Oct-19 15:21 33.946934 -118.400612 262 121ft 0kts
22-Oct-19 15:22 33.946934 -118.400612 262 121ft 0kts
22-Oct-19 15:23 33.946934 -118.400612 262 121ft 0kts
22-Oct-19 15:24 33.946934 -118.400612 262 121ft 0kts
22-Oct-19 15:25 33.946934 -118.400612 262 121ft 0kts
22-Oct-19 15:26 33.946934 -118.400612 262 121ft 0kts
22-Oct-19 15:27 33.946871 -118.400150 324 121ft 2kts
22-Oct-19 15:28 33.946676 -118.400085 357 121ft 0kts
22-Oct-19 15:29 33.946676 -118.400085 357 121ft 0kts
22-Oct-19 15:30 33.946676 -118.400085 357 121ft 0kts
22-Oct-19 15:31 33.946676 -118.400085 357 121ft 0kts
22-Oct-19 15:32 33.946745 -118.400089 357 121ft 3kts
22-Oct-19 15:33 33.948561 -118.400669 319 120ft 4kts
22-Oct-19 15:34 33.949504 -118.399243 37 117ft 0kts
22-Oct-19 15:35 33.949504 -118.399243 37 117ft 0kts
22-Oct-19 15:36 33.950064 -118.399124 351 117ft 9kts
22-Oct-19 15:37 33.948525 -118.418060 264 126ft 165kts
22-Oct-19 15:38 33.942757 -118.477499 269 2694ft 184kts
22-Oct-19 15:39 33.939701 -118.542954 265 4682ft 233kts
22-Oct-19 15:40 33.920224 -118.627878 220 6826ft 287kts
22-Oct-19 15:41 33.843216 -118.633073 160 10034ft 300kts
22-Oct-19 15:42 33.765486 -118.576267 145 12376ft 349kts
22-Oct-19 15:43 33.693962 -118.495301 119 15625ft 364kts
22-Oct-19 15:44 33.655422 -118.379692 106 16990ft 371kts
22-Oct-19 15:45 33.644548 -118.256857 85 19490ft 379kts
22-Oct-19 15:46 33.686393 -118.143256 40 22257ft 381kts
22-Oct-19 15:47 33.770093 -118.067306 34 24762ft 396kts
22-Oct-19 15:48 33.859130 -117.987337 34 27208ft 409kts
22-Oct-19 15:49 33.950622 -117.904392 35 29440ft 422kts
22-Oct-19 15:50 34.045030 -117.817960 35 31543ft 434kts
22-Oct-19 15:51 34.130897 -117.716636 49 33783ft 437kts
22-Oct-19 15:52 34.207468 -117.602338 48 35717ft 436kts
22-Oct-19 15:53 34.284431 -117.487827 48 37023ft 445kts
22-Oct-19 15:54 34.372187 -117.379414 40 37046ft 450kts
22-Oct-19 15:55 34.461154 -117.274582 41 37045ft 448kts
22-Oct-19 15:56 34.550756 -117.168553 41 37044ft 449kts
22-Oct-19 15:57 34.639940 -117.062697 41 37080ft 448kts
22-Oct-19 15:58 34.728945 -116.956709 41 37169ft 449kts
22-Oct-19 15:59 34.818072 -116.850242 40 37206ft 449kts
22-Oct-19 16:00 34.906671 -116.744061 40 37174ft 448kts
22-Oct-19 16:01 34.992024 -116.632922 43 37174ft 450kts
22-Oct-19 16:02 35.076710 -116.521244 43 37174ft 450kts
22-Oct-19 16:03 35.160684 -116.410202 43 37178ft 449kts
22-Oct-19 16:04 35.244489 -116.299034 43 37173ft 450kts
22-Oct-19 16:05 35.328809 -116.186800 43 37173ft 449kts
22-Oct-19 16:06 35.413341 -116.073920 43 37166ft 450kts
22-Oct-19 16:07 35.497537 -115.961115 43 37183ft 449kts
22-Oct-19 16:08 35.581815 -115.847799 43 37201ft 449kts
22-Oct-19 16:09 35.665186 -115.734312 43 37201ft 448kts
22-Oct-19 16:10 35.748391 -115.619527 43 37202ft 449kts
22-Oct-19 16:11 35.831181 -115.505348 43 37202ft 449kts
22-Oct-19 16:12 35.914273 -115.390354 43 37195ft 449kts
22-Oct-19 16:13 35.996707 -115.275893 43 37180ft 449kts
22-Oct-19 16:14 36.079776 -115.160990 39 37178ft 446kts
22-Oct-19 16:15 36.171964 -115.060588 35 37184ft 444kts
22-Oct-19 16:16 36.264993 -114.960297 35 37184ft 443kts
22-Oct-19 16:17 36.357647 -114.860079 35 37184ft 443kts
22-Oct-19 16:18 36.450121 -114.759568 35 37184ft 443kts
22-Oct-19 16:19 36.542780 -114.658647 35 37184ft 442kts
22-Oct-19 16:20 36.635080 -114.557867 35 37185ft 442kts
22-Oct-19 16:21 36.729190 -114.460215 27 37190ft 436kts
22-Oct-19 16:22 36.831653 -114.379918 26 37184ft 436kts
22-Oct-19 16:23 36.933487 -114.299915 26 37178ft 436kts
22-Oct-19 16:24 37.035724 -114.219354 26 37179ft 435kts
22-Oct-19 16:25 37.140129 -114.136876 25 37201ft 454kts
22-Oct-19 16:26 37.245302 -114.053373 24 37254ft 447kts
22-Oct-19 16:27 37.350668 -113.969538 24 37302ft 450kts
22-Oct-19 16:28 37.456071 -113.885347 24 37303ft 448kts
22-Oct-19 16:29 37.560823 -113.801421 24 37304ft 449kts
22-Oct-19 16:30 37.665994 -113.716858 24 37304ft 449kts
22-Oct-19 16:31 37.771179 -113.632004 24 37304ft 449kts
22-Oct-19 16:32 37.876216 -113.546978 24 37293ft 449kts
22-Oct-19 16:33 37.976617 -113.451972 34 37288ft 459kts
22-Oct-19 16:34 38.070636 -113.344406 33 37285ft 460kts
22-Oct-19 16:35 38.165523 -113.236493 33 37282ft 461kts
22-Oct-19 16:36 38.260903 -113.127570 33 37284ft 460kts
22-Oct-19 16:37 38.357397 -113.022384 24 37296ft 450kts
22-Oct-19 16:38 38.468236 -112.955710 13 37299ft 438kts
22-Oct-19 16:39 38.580174 -112.896119 13 37303ft 437kts
22-Oct-19 16:40 38.692171 -112.836154 13 37308ft 438kts
22-Oct-19 16:41 38.804297 -112.775919 13 37312ft 437kts
22-Oct-19 16:42 38.915933 -112.715580 13 37310ft 436kts
22-Oct-19 16:43 39.027619 -112.655154 13 37304ft 436kts
22-Oct-19 16:44 39.130764 -112.599154 13 37308ft 434kts
22-Oct-19 16:45 39.242949 -112.538061 13 37298ft 435kts
22-Oct-19 16:46 39.358449 -112.486699 5 34769ft 435kts
22-Oct-19 16:47 39.473703 -112.448753 5 31786ft 424kts
22-Oct-19 16:48 39.585853 -112.411451 6 28912ft 409kts
22-Oct-19 16:49 39.693241 -112.375637 6 26271ft 390kts
22-Oct-19 16:51 39.795571 -112.341369 7 23689ft 369kts
22-Oct-19 16:52 39.897142 -112.307343 8 21105ft 386kts
22-Oct-19 16:53 39.998145 -112.273316 8 18472ft 363kts
22-Oct-19 16:54 40.092320 -112.241400 8 17056ft 346kts
22-Oct-19 16:55 40.185470 -112.209814 8 16994ft 344kts
22-Oct-19 16:56 40.277156 -112.178650 9 14699ft 339kts
22-Oct-19 16:57 40.366513 -112.148220 10 14011ft 336kts
22-Oct-19 16:58 40.456311 -112.117531 9 13732ft 328kts
22-Oct-19 16:59 40.544950 -112.087462 8 12408ft 334kts
22-Oct-19 17:00 40.633776 -112.078669 354 11108ft 319kts
22-Oct-19 17:01 40.722188 -112.088456 352 10994ft 312kts
22-Oct-19 17:02 40.773040 -112.094380 351 10990ft 281kts
22-Oct-19 17:03 40.829477 -112.101069 351 10980ft 240kts
22-Oct-19 17:04 40.894562 -112.108862 351 9565ft 235kts
22-Oct-19 17:05 40.955979 -112.096134 38 8386ft 225kts
22-Oct-19 17:06 40.965030 -112.028760 138 7054ft 200kts
22-Oct-19 17:07 40.914690 -112.011336 180 6374ft 186kts
22-Oct-19 17:07 40.870993 -112.006665 176 5512ft 189kts
22-Oct-19 17:09 40.815325 -112.000172 173 4423ft 169kts
22-Oct-19 17:10 40.788043 -111.996395 147 4235ft 24kts
22-Oct-19 17:11 40.787177 -111.989938 85 4235ft 13kts
22-Oct-19 17:11 40.787667 -111.987659 86 4235ft 9kts
22-Oct-19 17:13 40.787835 -111.985606 65 4235ft 5kts
22-Oct-19 17:14 40.787937 -111.985238 71 4235ft 0kts

Navigation Log

Ident Type
Flight plan parsing failed, navigation log unavailable